Terminal Aerodrome Forecast
Issued by NWS Paducah, KY

Home | Current Version | Previous Version | Graphics & Text | Print | Product List | Glossary On
Versions: 1 2 3 4 5 6 7 8 9 10 11 12 13 14 15 16 17 18 19 20 21 22 23 24 25 26 27 28
459
FTUS43 KPAH 152347
TAFPAH
TAF
KPAH 152347Z 1600/1624 06005KT 1SM BR OVC003
     FM160600 10005KT 3/4SM BR OVC002
     FM161600 16009KT 2SM -DZ BR OVC003
     FM162200 17011KT 5SM -SHRA BR OVC007=

USA.gov is the U.S. government's official web portal to all federal, state and local government web resources and services.